Wetterdaten der Wetterstation 41540 Dormagen

Letzte Wetterlage 06.03.2015 20:45
Wetterdiagramm
Tabellarische Darstellung
Datum Temperatur Windchill Feuchte Luftdruck Windrichtung Windstärke Niederschlag
06.03.2015 20:55 4,3 °C 4,3 °C 73 % 1035,5 hPa 180 0.0 0,00 mm
06.03.2015 20:45 4,5 °C 4,5 °C 72 % 1035,4 hPa 90 0.0 0,00 mm
06.03.2015 20:35 4,7 °C 4,7 °C 71 % 1035,5 hPa 270 0.0 0,00 mm
06.03.2015 20:25 4,9 °C 4,9 °C 70 % 1035,3 hPa 180 0.3 0,00 mm
06.03.2015 20:15 5,2 °C 5,2 °C 68 % 1035,5 hPa 180 0.3 0,00 mm
06.03.2015 20:05 5,6 °C 5,6 °C 68 % 1035,4 hPa 180 0.7 0,00 mm
06.03.2015 19:55 5,7 °C 5,7 °C 67 % 1035,4 hPa 180 0.0 0,00 mm
06.03.2015 19:45 6,0 °C 6,0 °C 66 % 1035,5 hPa 180 0.7 0,00 mm
06.03.2015 19:35 6,3 °C 6,3 °C 65 % 1035,7 hPa 180 0.0 0,00 mm
06.03.2015 19:25 6,6 °C 6,6 °C 64 % 1035,9 hPa 135 0.0 0,00 mm
06.03.2015 19:15 6,9 °C 6,9 °C 64 % 1035,9 hPa 135 0.3 0,00 mm
06.03.2015 19:05 7,1 °C 7,1 °C 62 % 1036,1 hPa 225 0.0 0,00 mm
06.03.2015 18:55 7,5 °C 7,5 °C 61 % 1036,3 hPa 158 0.7 0,00 mm
06.03.2015 18:45 7,9 °C 7,9 °C 61 % 1036,3 hPa 180 0.7 0,00 mm
06.03.2015 18:35 8,2 °C 8,2 °C 60 % 1036,4 hPa 180 0.3 0,00 mm
06.03.2015 18:25 8,4 °C 8,4 °C 60 % 1036,3 hPa 270 0.3 0,00 mm
06.03.2015 18:15 8,8 °C 8,8 °C 60 % 1036,2 hPa 270 0.3 0,00 mm
06.03.2015 18:05 9,4 °C 9,4 °C 59 % 1036,1 hPa 270 0.7 0,00 mm
06.03.2015 17:55 9,5 °C 9,5 °C 59 % 1036,1 hPa 270 0.7 0,00 mm
06.03.2015 17:45 9,6 °C 9,6 °C 59 % 1036,0 hPa 0.7 0,00 mm
06.03.2015 17:35 9,9 °C 9,9 °C 58 % 1035,8 hPa 270 1.0 0,00 mm
06.03.2015 17:25 10,1 °C 10,1 °C 57 % 1035,8 hPa 270 2.0 0,00 mm
06.03.2015 17:15 10,3 °C 10,3 °C 57 % 1035,5 hPa 225 1.0 0,00 mm
06.03.2015 17:05 10,5 °C 10,5 °C 56 % 1035,5 hPa 270 0.7 0,00 mm
06.03.2015 16:55 10,8 °C 10,8 °C 56 % 1035,5 hPa 270 1.0 0,00 mm
Neue Wetterwarnung

Neue Niederschlagsmeldung
Neue Meldung
Regen Liveticker
    sehr starker Regen/Gewitter
    starker Regen/Gewitter
    mäßiger bis starker Regen
    mäßiger Regen
    leichter bis mäßiger Regen
    kein Regen